Time;durP1;ratioP1;P1;durP2;ratioP2;P2;SDS_P1;SDS_P2;PMS_P1;PMS_P2;Temp;Humidity;BMP_temperature;BMP_pressure;BME280_temperature;BME280_humidity;BME280_pressure;Samples;Min_cycle;Max_cycle;Signal;HPM_P1;HPM_P2
2022/12/20 00:01:27;;;;;;;3.67;2.17;;;13.00;44.30;;;;;;5055395;28;20186;-83
2022/12/20 00:03:55;;;;;;;3.90;2.33;;;12.90;46.20;;;;;;5054517;28;20184;-83
2022/12/20 00:06:21;;;;;;;4.50;2.03;;;13.00;48.40;;;;;;5055960;28;20165;-82
2022/12/20 00:08:53;;;;;;;3.43;2.20;;;13.10;49.70;;;;;;5054997;28;20180;-84
2022/12/20 00:11:19;;;;;;;3.37;2.10;;;13.00;52.10;;;;;;5064022;28;20146;-82
2022/12/20 00:13:48;;;;;;;3.00;1.90;;;13.00;53.20;;;;;;5075864;28;20245;-83
2022/12/20 00:16:17;;;;;;;3.23;2.00;;;13.10;53.40;;;;;;5058095;28;20231;-83
2022/12/20 00:18:43;;;;;;;4.07;2.00;;;12.80;53.60;;;;;;5054067;28;20227;-83
2022/12/20 00:21:12;;;;;;;3.20;1.80;;;12.90;55.00;;;;;;5053879;28;20188;-84
2022/12/20 00:23:39;;;;;;;3.10;2.13;;;12.80;56.40;;;;;;5052984;28;20168;-83
2022/12/20 00:26:16;;;;;;;2.97;2.00;;;12.90;57.40;;;;;;5053505;28;20169;-83
2022/12/20 00:28:43;;;;;;;3.07;2.07;;;12.80;59.00;;;;;;5055347;28;20237;-83
2022/12/20 00:31:11;;;;;;;5.43;2.03;;;12.80;61.60;;;;;;5056428;28;20177;-83
2022/12/20 00:33:38;;;;;;;2.77;1.90;;;12.90;63.20;;;;;;5056141;28;20691;-84
2022/12/20 00:36:05;;;;;;;4.03;1.90;;;12.80;64.30;;;;;;5052972;28;20259;-84
2022/12/20 00:38:30;;;;;;;4.47;1.93;;;12.80;64.30;;;;;;5054359;28;20240;-83
2022/12/20 00:41:11;;;;;;;3.47;1.97;;;12.80;62.20;;;;;;5053168;28;20177;-84
2022/12/20 00:43:38;;;;;;;3.53;2.03;;;12.80;62.90;;;;;;5053380;28;20182;-83
2022/12/20 00:46:04;;;;;;;4.80;2.27;;;12.80;62.40;;;;;;5053619;28;20235;-83
2022/12/20 00:48:31;;;;;;;3.67;2.37;;;12.80;63.70;;;;;;5052653;28;20238;-84
2022/12/20 00:51:24;;;;;;;3.10;2.13;;;12.80;63.80;;;;;;5052999;28;20197;-84
2022/12/20 00:53:50;;;;;;;5.37;2.20;;;12.80;64.60;;;;;;5052639;28;20205;-84
2022/12/20 00:56:16;;;;;;;4.67;1.90;;;12.90;63.50;;;;;;5053170;28;20177;-84
2022/12/20 00:58:42;;;;;;;3.17;1.87;;;12.90;63.30;;;;;;5053611;28;20177;-84
2022/12/20 01:01:20;;;;;;;4.50;2.50;;;12.90;63.40;;;;;;5052856;28;20185;-83
2022/12/20 01:03:47;;;;;;;2.67;1.87;;;12.90;64.40;;;;;;5061566;28;20177;-82
2022/12/20 01:06:12;;;;;;;6.07;2.10;;;12.80;63.80;;;;;;5064314;28;20185;-85
2022/12/20 01:08:38;;;;;;;3.50;2.00;;;12.80;64.90;;;;;;5057173;28;20648;-84
2022/12/20 01:11:32;;;;;;;6.40;2.23;;;12.80;65.10;;;;;;5057381;28;20171;-83
2022/12/20 01:14:02;;;;;;;3.37;1.97;;;12.80;65.90;;;;;;5054738;28;20216;-84
2022/12/20 01:16:37;;;;;;;4.10;1.83;;;12.80;66.20;;;;;;5040738;28;20179;-84
2022/12/20 01:19:03;;;;;;;3.90;2.20;;;12.80;66.70;;;;;;5057308;28;20177;-84
2022/12/20 01:21:30;;;;;;;3.40;1.90;;;12.70;67.00;;;;;;5057744;28;20177;-84
2022/12/20 01:23:56;;;;;;;3.87;2.27;;;12.80;67.70;;;;;;5060271;28;20189;-83
2022/12/20 01:26:25;;;;;;;4.10;2.50;;;13.00;68.80;;;;;;5075864;28;20200;-85
2022/12/20 01:28:58;;;;;;;4.07;2.30;;;12.80;70.60;;;;;;5071672;28;20200;-84
2022/12/20 01:31:27;;;;;;;5.03;2.10;;;12.70;71.20;;;;;;5069461;28;20200;-84
2022/12/20 01:33:56;;;;;;;6.07;2.60;;;12.60;72.70;;;;;;5065529;28;20258;-83
2022/12/20 01:36:30;;;;;;;5.20;2.37;;;12.70;72.60;;;;;;5057821;28;20266;-83
2022/12/20 01:39:04;;;;;;;5.03;2.70;;;12.60;72.90;;;;;;5055911;28;20628;-83
2022/12/20 01:41:31;;;;;;;4.03;2.07;;;12.60;74.10;;;;;;5056055;28;20267;-83
2022/12/20 01:44:01;;;;;;;4.80;2.27;;;12.60;74.80;;;;;;5055642;28;20223;-82
2022/12/20 01:46:29;;;;;;;6.20;2.07;;;12.60;75.70;;;;;;5056372;28;20180;-83
2022/12/20 01:49:24;;;;;;;5.27;2.27;;;12.60;75.50;;;;;;5057045;28;20197;-82
2022/12/20 01:51:56;;;;;;;3.93;2.43;;;12.60;76.90;;;;;;5079341;28;20672;-81
2022/12/20 01:54:30;;;;;;;4.80;2.50;;;12.60;76.40;;;;;;5058309;28;20193;-83
2022/12/20 01:57:07;;;;;;;5.30;2.47;;;12.60;77.80;;;;;;5057626;28;20180;-83
2022/12/20 01:59:36;;;;;;;5.77;2.40;;;12.60;79.60;;;;;;5056249;28;20183;-83
2022/12/20 02:02:06;;;;;;;3.63;2.10;;;12.60;80.40;;;;;;5060009;28;20177;-83
2022/12/20 02:04:32;;;;;;;4.10;2.00;;;12.60;82.40;;;;;;5056182;28;20205;-83
2022/12/20 02:06:59;;;;;;;3.70;2.20;;;12.60;81.70;;;;;;5063403;28;20180;-82
2022/12/20 02:09:25;;;;;;;5.43;2.20;;;12.60;83.50;;;;;;5074184;28;20177;-80
2022/12/20 02:11:51;;;;;;;4.50;1.87;;;12.50;84.70;;;;;;5074193;28;20200;-81
2022/12/20 02:14:50;;;;;;;3.77;2.30;;;12.60;85.30;;;;;;5061339;28;20559;-83
2022/12/20 02:17:55;;;;;;;3.60;2.17;;;12.50;84.70;;;;;;5056777;28;20197;-83
2022/12/20 02:20:37;;;;;;;3.23;2.00;;;12.50;84.70;;;;;;5054732;28;20177;-84
2022/12/20 02:23:41;;;;;;;2.90;2.17;;;12.50;84.30;;;;;;5056295;28;20176;-82
2022/12/20 02:26:26;;;;;;;4.43;2.67;;;12.50;82.80;;;;;;5073799;28;20157;-83
2022/12/20 02:29:19;;;;;;;4.63;2.40;;;12.50;83.70;;;;;;5066684;28;20180;-83
2022/12/20 02:31:57;;;;;;;3.27;1.90;;;12.50;83.30;;;;;;5055231;28;20180;-83
2022/12/20 02:34:25;;;;;;;3.33;2.07;;;12.60;83.50;;;;;;5054066;28;20185;-83
2022/12/20 02:36:51;;;;;;;3.70;2.20;;;12.60;82.60;;;;;;5053953;28;20188;-83
2022/12/20 02:39:16;;;;;;;3.57;2.27;;;12.60;82.50;;;;;;5053938;28;20181;-83
2022/12/20 02:42:09;;;;;;;4.03;2.20;;;12.70;81.80;;;;;;5055349;28;20712;-84
2022/12/20 02:47:32;;;;;;;3.67;2.33;;;12.80;78.70;;;;;;5055368;28;20180;-83
2022/12/20 02:49:59;;;;;;;4.43;2.10;;;12.70;79.20;;;;;;5053353;28;20188;-83
2022/12/20 02:52:29;;;;;;;6.37;2.33;;;12.70;78.60;;;;;;5053857;28;20197;-83
2022/12/20 02:54:58;;;;;;;4.03;2.20;;;12.70;79.60;;;;;;5053759;28;20251;-83
2022/12/20 02:57:54;;;;;;;4.80;2.30;;;12.70;78.80;;;;;;5053885;28;20243;-83
2022/12/20 03:00:22;;;;;;;3.83;1.70;;;12.70;78.60;;;;;;5054968;28;20263;-83
2022/12/20 03:03:21;;;;;;;4.57;2.03;;;12.70;78.40;;;;;;5053789;28;20641;-83
2022/12/20 03:05:45;;;;;;;4.33;1.90;;;12.70;79.10;;;;;;5051727;28;20217;-83
2022/12/20 03:08:11;;;;;;;4.30;2.40;;;12.70;79.30;;;;;;5053581;28;20633;-84
2022/12/20 03:10:37;;;;;;;3.47;2.30;;;12.80;79.00;;;;;;5053619;28;20186;-83
2022/12/20 03:13:03;;;;;;;2.90;2.10;;;12.80;78.30;;;;;;5053553;28;20205;-83
2022/12/20 03:15:29;;;;;;;4.43;2.30;;;12.70;78.10;;;;;;5053125;28;20165;-83
2022/12/20 03:17:55;;;;;;;4.63;2.40;;;12.70;79.00;;;;;;5052793;28;20270;-83
2022/12/20 03:20:20;;;;;;;3.70;1.87;;;12.70;79.20;;;;;;5054810;28;20157;-83
2022/12/20 03:22:46;;;;;;;5.10;2.00;;;12.80;79.00;;;;;;5053315;28;20658;-83
2022/12/20 03:25:12;;;;;;;4.00;2.20;;;12.70;78.00;;;;;;5054358;28;20175;-84
2022/12/20 03:27:38;;;;;;;7.37;2.10;;;12.70;77.30;;;;;;5054127;28;20174;-83
2022/12/20 03:30:05;;;;;;;2.53;1.90;;;12.80;77.60;;;;;;5054429;28;20176;-83
2022/12/20 03:32:30;;;;;;;2.60;1.80;;;12.80;76.50;;;;;;5055126;28;20192;-83
2022/12/20 03:34:56;;;;;;;3.77;1.87;;;12.80;78.20;;;;;;5058143;28;20180;-83
2022/12/20 03:37:21;;;;;;;3.97;2.10;;;12.80;80.30;;;;;;5060126;28;20189;-83
2022/12/20 03:39:47;;;;;;;3.30;2.03;;;12.70;81.30;;;;;;5067292;28;20731;-83
2022/12/20 03:42:15;;;;;;;3.17;2.00;;;12.80;82.10;;;;;;5070762;28;20176;-82
2022/12/20 03:44:40;;;;;;;4.63;2.03;;;12.70;81.80;;;;;;5070900;28;20692;-82
2022/12/20 03:47:06;;;;;;;3.57;1.83;;;12.70;83.10;;;;;;5060552;28;20203;-83
2022/12/20 03:49:47;;;;;;;4.07;1.93;;;12.80;84.20;;;;;;5053411;28;20676;-82
2022/12/20 03:52:14;;;;;;;3.73;2.20;;;12.70;87.00;;;;;;5054152;28;20735;-82
2022/12/20 03:54:40;;;;;;;3.33;1.70;;;12.70;88.60;;;;;;5056313;28;20184;-83
2022/12/20 03:57:05;;;;;;;5.07;2.07;;;12.70;89.80;;;;;;5052635;28;20578;-83
2022/12/20 03:59:31;;;;;;;7.73;2.20;;;12.70;90.40;;;;;;5052703;28;20584;-82
2022/12/20 04:01:57;;;;;;;4.67;1.97;;;12.60;90.30;;;;;;5052270;28;20645;-82
2022/12/20 04:04:23;;;;;;;5.73;2.40;;;12.70;90.60;;;;;;5052065;28;20176;-83
2022/12/20 04:06:48;;;;;;;3.47;1.97;;;12.70;90.60;;;;;;5052512;28;20173;-82
2022/12/20 04:09:14;;;;;;;4.63;2.20;;;12.70;90.40;;;;;;5052568;28;20173;-83
2022/12/20 04:11:40;;;;;;;5.00;2.10;;;12.70;90.20;;;;;;5056727;28;20173;-81
2022/12/20 04:14:06;;;;;;;3.37;2.17;;;12.70;90.20;;;;;;5072384;28;20213;-84
2022/12/20 04:16:32;;;;;;;3.07;1.80;;;12.60;90.60;;;;;;5052717;28;20257;-84
2022/12/20 04:18:59;;;;;;;4.23;1.90;;;12.60;90.30;;;;;;5064003;28;20192;-84
2022/12/20 04:21:30;;;;;;;4.30;1.97;;;12.60;90.20;;;;;;5066362;28;20256;-84
2022/12/20 04:23:58;;;;;;;3.00;1.90;;;12.60;90.20;;;;;;5055019;28;20257;-84
2022/12/20 04:26:24;;;;;;;4.17;2.07;;;12.60;89.90;;;;;;5052706;28;20169;-83
2022/12/20 04:28:50;;;;;;;4.23;2.17;;;12.60;89.30;;;;;;5066214;28;20182;-84
2022/12/20 04:31:16;;;;;;;3.10;1.90;;;12.70;88.60;;;;;;5068933;28;20187;-82
2022/12/20 04:33:42;;;;;;;3.70;1.83;;;12.60;87.50;;;;;;5064205;28;20259;-82
2022/12/20 04:36:09;;;;;;;3.53;1.90;;;12.60;85.90;;;;;;5073692;28;20512;-83
2022/12/20 04:38:34;;;;;;;3.00;1.70;;;12.60;84.00;;;;;;5053945;28;20195;-83
2022/12/20 04:41:23;;;;;;;4.03;1.90;;;12.70;82.30;;;;;;5051958;28;20172;-83
2022/12/20 04:43:54;;;;;;;3.73;1.70;;;12.60;81.40;;;;;;5052256;28;20173;-83
2022/12/20 04:46:24;;;;;;;3.57;1.80;;;12.80;79.50;;;;;;5051836;28;20180;-83
2022/12/20 04:48:50;;;;;;;4.47;1.90;;;12.70;77.10;;;;;;5051996;28;20188;-84
2022/12/20 04:51:16;;;;;;;4.77;1.83;;;12.70;75.60;;;;;;5051995;28;20176;-85
2022/12/20 04:53:46;;;;;;;2.70;1.57;;;12.80;73.70;;;;;;5051904;28;20302;-82
2022/12/20 04:56:17;;;;;;;4.07;2.00;;;12.90;73.20;;;;;;5063297;28;20220;-84
2022/12/20 04:58:44;;;;;;;3.87;1.90;;;12.80;71.80;;;;;;5068744;28;20195;-85
2022/12/20 05:01:10;;;;;;;4.63;1.67;;;12.80;70.10;;;;;;5052272;28;20177;-84
2022/12/20 05:03:36;;;;;;;5.83;2.00;;;12.80;69.60;;;;;;5051948;28;20177;-84
2022/12/20 05:06:02;;;;;;;4.83;2.10;;;12.80;69.50;;;;;;5051681;28;20211;-84
2022/12/20 05:08:28;;;;;;;2.27;1.47;;;12.80;67.40;;;;;;5051700;28;20176;-84
2022/12/20 05:10:55;;;;;;;2.87;1.50;;;12.80;66.50;;;;;;5051865;28;20181;-84
2022/12/20 05:13:21;;;;;;;3.37;1.57;;;12.80;64.80;;;;;;5051039;28;20217;-84
2022/12/20 05:15:51;;;;;;;2.80;1.43;;;12.80;64.50;;;;;;5051267;28;20169;-84
2022/12/20 05:18:16;;;;;;;4.20;1.70;;;12.90;63.40;;;;;;5051888;28;20177;-83
2022/12/20 05:20:42;;;;;;;2.93;1.73;;;12.80;64.20;;;;;;5056580;28;20181;-84
2022/12/20 05:28:38;;;;;;;3.57;1.80;;;12.80;62.60;;;;;;5056612;28;20243;-84
2022/12/20 05:31:04;;;;;;;3.13;1.43;;;12.80;62.10;;;;;;5053639;28;20702;-84
2022/12/20 05:33:31;;;;;;;4.40;1.83;;;12.80;61.70;;;;;;5055962;28;20215;-84
2022/12/20 05:35:59;;;;;;;4.47;1.90;;;12.80;60.90;;;;;;5057506;28;20213;-83
2022/12/20 05:38:25;;;;;;;3.57;1.70;;;12.80;60.10;;;;;;5055695;28;20192;-84
2022/12/20 05:40:51;;;;;;;4.20;1.60;;;12.80;59.90;;;;;;5056428;28;20212;-84
2022/12/20 05:43:20;;;;;;;3.17;1.60;;;12.80;60.00;;;;;;5055492;28;20547;-83
2022/12/20 05:45:48;;;;;;;2.40;1.43;;;12.80;60.10;;;;;;5054057;28;20171;-84
2022/12/20 05:48:19;;;;;;;3.67;1.77;;;12.80;59.70;;;;;;5054717;28;20174;-84
2022/12/20 05:50:47;;;;;;;2.83;1.60;;;12.80;59.70;;;;;;5059371;28;20625;-85
2022/12/20 05:53:14;;;;;;;5.20;1.83;;;12.80;59.00;;;;;;5067867;28;20214;-83
2022/12/20 05:55:47;;;;;;;4.33;1.53;;;13.00;58.60;;;;;;5069930;28;20182;-83
2022/12/20 05:58:12;;;;;;;2.70;1.40;;;12.80;57.60;;;;;;5061954;28;20181;-84
2022/12/20 06:00:40;;;;;;;3.40;1.33;;;12.80;57.40;;;;;;5060312;28;20542;-83
2022/12/20 06:03:08;;;;;;;3.07;1.60;;;12.80;56.40;;;;;;5059299;28;20195;-83
2022/12/20 06:05:36;;;;;;;5.20;1.57;;;12.90;55.40;;;;;;5055317;28;20177;-84
2022/12/20 06:08:06;;;;;;;4.33;1.63;;;12.80;55.30;;;;;;5057005;28;20219;-83
2022/12/20 06:10:33;;;;;;;3.70;1.87;;;12.80;55.50;;;;;;5054886;28;20173;-84
2022/12/20 06:13:02;;;;;;;4.07;1.60;;;12.80;55.40;;;;;;5054997;28;20212;-85
2022/12/20 06:15:29;;;;;;;2.83;1.50;;;12.90;53.60;;;;;;5055572;28;20174;-84
2022/12/20 06:17:55;;;;;;;2.53;1.40;;;12.90;52.40;;;;;;5055331;28;20207;-85
2022/12/20 06:20:21;;;;;;;3.03;1.60;;;12.90;52.00;;;;;;5055076;28;20169;-85
2022/12/20 06:22:47;;;;;;;2.53;1.53;;;13.00;51.90;;;;;;5055228;28;20173;-84
2022/12/20 06:25:14;;;;;;;2.10;1.10;;;13.00;51.10;;;;;;5063735;28;20185;-83
2022/12/20 06:27:40;;;;;;;2.13;1.47;;;13.00;50.00;;;;;;5065615;28;20177;-86
2022/12/20 06:30:07;;;;;;;3.10;1.40;;;13.00;49.40;;;;;;5059715;28;20165;-84
2022/12/20 06:32:33;;;;;;;2.00;1.37;;;13.10;48.80;;;;;;5062595;28;20205;-83
2022/12/20 06:34:58;;;;;;;2.40;1.40;;;13.10;48.30;;;;;;5076184;28;20257;-85
2022/12/20 06:37:24;;;;;;;4.27;1.67;;;13.10;48.10;;;;;;5056332;28;20235;-84
2022/12/20 06:39:50;;;;;;;3.53;1.60;;;13.10;47.70;;;;;;5056801;28;20637;-82
2022/12/20 06:42:18;;;;;;;2.97;1.27;;;13.10;47.20;;;;;;5062293;28;20200;-84
2022/12/20 06:44:44;;;;;;;2.27;1.30;;;13.10;47.20;;;;;;5071135;28;20170;-85
2022/12/20 06:47:09;;;;;;;2.50;1.43;;;13.20;46.30;;;;;;5057304;28;20546;-86
2022/12/20 06:49:37;;;;;;;3.00;1.37;;;13.20;45.20;;;;;;5056929;28;20197;-85
2022/12/20 06:52:03;;;;;;;3.63;1.23;;;13.40;44.50;;;;;;5079263;28;20185;-86
2022/12/20 06:54:29;;;;;;;3.07;1.40;;;13.30;43.80;;;;;;5069353;28;20212;-85
2022/12/20 06:56:57;;;;;;;3.73;1.60;;;13.30;44.40;;;;;;5061267;28;20196;-84
2022/12/20 06:59:26;;;;;;;2.83;1.40;;;13.30;46.30;;;;;;5054781;28;20639;-84
2022/12/20 07:01:51;;;;;;;4.57;1.50;;;13.20;49.30;;;;;;5055040;28;20602;-85
2022/12/20 07:04:17;;;;;;;3.97;1.30;;;13.20;51.20;;;;;;5053773;28;20173;-85
2022/12/20 07:06:45;;;;;;;3.47;1.43;;;13.20;53.20;;;;;;5054169;28;20201;-84
2022/12/20 07:09:10;;;;;;;3.30;1.40;;;13.10;55.40;;;;;;5054066;28;20588;-83
2022/12/20 07:11:37;;;;;;;3.83;1.80;;;13.10;59.00;;;;;;5055992;28;20181;-87
2022/12/20 07:14:04;;;;;;;4.03;1.63;;;13.00;61.20;;;;;;5067925;28;20213;-81
2022/12/20 07:16:31;;;;;;;4.50;1.73;;;13.00;65.40;;;;;;5064564;28;20174;-84
2022/12/20 07:18:57;;;;;;;4.10;1.70;;;12.90;68.40;;;;;;5055495;28;20267;-85
2022/12/20 07:21:24;;;;;;;4.60;1.73;;;12.90;71.60;;;;;;5054641;28;20166;-84
2022/12/20 07:23:50;;;;;;;4.73;1.63;;;12.80;75.10;;;;;;5053508;28;20188;-84
2022/12/20 07:26:16;;;;;;;3.80;1.70;;;12.70;78.20;;;;;;5052219;28;20173;-85
2022/12/20 07:28:42;;;;;;;2.70;1.50;;;12.70;80.70;;;;;;5052887;28;20216;-84
2022/12/20 07:31:09;;;;;;;5.27;1.60;;;12.60;82.40;;;;;;5052288;28;20171;-84
2022/12/20 07:33:38;;;;;;;4.43;1.80;;;12.70;87.10;;;;;;5050967;28;20577;-84
2022/12/20 07:36:10;;;;;;;4.33;2.10;;;12.60;90.10;;;;;;5052348;28;20205;-85
2022/12/20 07:38:36;;;;;;;4.10;1.93;;;12.40;91.90;;;;;;5052469;28;20292;-84
2022/12/20 07:41:09;;;;;;;6.97;2.20;;;12.40;93.20;;;;;;5053675;28;20343;-83
2022/12/20 07:43:35;;;;;;;4.13;1.80;;;12.30;94.60;;;;;;5053453;28;20181;-84
2022/12/20 07:46:01;;;;;;;5.83;2.20;;;12.30;96.20;;;;;;5053860;28;20553;-84
2022/12/20 07:48:26;;;;;;;5.73;2.00;;;12.20;97.20;;;;;;5053076;28;20178;-83
2022/12/20 07:50:56;;;;;;;3.80;1.87;;;12.10;98.40;;;;;;5059441;28;20203;-83
2022/12/20 07:53:24;;;;;;;5.10;1.80;;;12.30;99.40;;;;;;5066992;28;20209;-83
2022/12/20 07:55:53;;;;;;;5.00;2.10;;;12.10;99.50;;;;;;5066339;28;20169;-83
2022/12/20 07:58:19;;;;;;;4.23;2.07;;;12.00;99.90;;;;;;5066794;28;20173;-83
2022/12/20 08:00:46;;;;;;;5.37;2.10;;;12.00;99.90;;;;;;5057794;28;20238;-84
2022/12/20 08:03:14;;;;;;;5.73;2.20;;;11.90;99.90;;;;;;5053339;28;20185;-84
2022/12/20 08:05:45;;;;;;;7.37;2.07;;;12.00;99.90;;;;;;5053527;28;20173;-84
2022/12/20 08:08:18;;;;;;;4.47;2.10;;;11.90;99.90;;;;;;5054617;28;20263;-85
2022/12/20 08:10:45;;;;;;;5.43;2.17;;;11.90;99.90;;;;;;5065208;28;20160;-84
2022/12/20 08:13:22;;;;;;;4.60;1.80;;;11.90;99.90;;;;;;5073119;28;20236;-85
2022/12/20 08:15:48;;;;;;;5.17;2.17;;;12.00;99.90;;;;;;5063647;28;20169;-84
2022/12/20 08:18:15;;;;;;;6.63;2.00;;;12.00;99.90;;;;;;5072778;28;20199;-84
2022/12/20 08:20:41;;;;;;;4.30;2.10;;;11.90;99.90;;;;;;5072114;28;20161;-83
2022/12/20 08:23:07;;;;;;;4.13;2.30;;;11.80;99.90;;;;;;5063627;28;20180;-84
2022/12/20 08:25:39;;;;;;;6.00;2.33;;;11.80;99.90;;;;;;5058736;28;20170;-85
2022/12/20 08:28:15;;;;;;;5.17;2.10;;;11.90;99.90;;;;;;5053859;28;20173;-85
2022/12/20 08:30:41;;;;;;;6.60;2.10;;;11.90;99.90;;;;;;5054263;28;20169;-85
2022/12/20 08:33:07;;;;;;;3.97;2.03;;;11.90;99.90;;;;;;5052774;28;20213;-85
2022/12/20 08:35:32;;;;;;;5.87;2.00;;;11.90;99.90;;;;;;5053904;28;20535;-85
2022/12/20 08:37:58;;;;;;;5.00;2.10;;;11.90;99.90;;;;;;5052045;28;20275;-85
2022/12/20 08:40:24;;;;;;;5.23;2.03;;;11.90;99.90;;;;;;5052831;28;20259;-85
2022/12/20 08:42:49;;;;;;;5.53;1.50;;;12.00;99.90;;;;;;5051956;28;20649;-84
2022/12/20 08:45:18;;;;;;;5.17;1.87;;;12.00;99.90;;;;;;5054003;28;20187;-85
2022/12/20 08:47:43;;;;;;;5.97;2.00;;;11.90;99.90;;;;;;5054743;28;20235;-85
2022/12/20 08:50:10;;;;;;;4.63;2.20;;;11.90;99.90;;;;;;5052496;28;20260;-85
2022/12/20 08:52:35;;;;;;;4.97;2.33;;;11.90;99.90;;;;;;5056436;28;20200;-83
2022/12/20 08:55:01;;;;;;;4.20;2.13;;;12.00;99.90;;;;;;5073688;28;20245;-85
2022/12/20 08:57:27;;;;;;;5.77;2.17;;;12.10;99.90;;;;;;5057886;28;20165;-85
2022/12/20 08:59:52;;;;;;;4.37;1.70;;;12.00;99.90;;;;;;5054847;28;20175;-85
2022/12/20 09:02:19;;;;;;;4.43;2.23;;;12.00;99.90;;;;;;5057205;28;20246;-86
2022/12/20 09:04:46;;;;;;;5.10;1.87;;;12.00;99.90;;;;;;5059724;28;20177;-84
2022/12/20 09:07:12;;;;;;;6.27;1.87;;;12.00;99.90;;;;;;5057592;28;20308;-86
2022/12/20 09:09:38;;;;;;;5.10;2.00;;;11.90;99.90;;;;;;5061070;28;20169;-83
2022/12/20 09:12:06;;;;;;;4.77;2.50;;;11.90;99.90;;;;;;5074907;28;20161;-84
2022/12/20 09:14:32;;;;;;;6.27;2.93;;;11.90;99.90;;;;;;5068342;28;20212;-85
2022/12/20 09:16:58;;;;;;;6.73;2.20;;;11.90;99.90;;;;;;5070018;28;20245;-84
2022/12/20 09:19:23;;;;;;;6.30;2.17;;;11.90;99.90;;;;;;5058998;28;20282;-86
2022/12/20 09:21:54;;;;;;;5.80;2.20;;;11.90;99.90;;;;;;5067913;28;20233;-85
2022/12/20 09:24:20;;;;;;;25.70;17.07;;;12.00;99.90;;;;;;5063981;28;20168;-87
2022/12/20 09:26:45;;;;;;;6.87;3.33;;;11.90;99.90;;;;;;5059293;28;20176;-86
2022/12/20 09:29:11;;;;;;;5.90;2.57;;;12.00;99.90;;;;;;5025738;28;20231;-86
2022/12/20 09:31:40;;;;;;;5.33;2.50;;;12.00;99.90;;;;;;5060697;28;20188;-85
2022/12/20 09:34:06;;;;;;;5.87;2.80;;;12.10;99.90;;;;;;5076021;28;20189;-84
2022/12/20 09:36:31;;;;;;;5.70;2.30;;;12.10;99.90;;;;;;5068612;28;20763;-86
2022/12/20 09:39:00;;;;;;;5.90;2.60;;;12.00;99.90;;;;;;5059990;28;20177;-86
2022/12/20 09:41:32;;;;;;;4.80;2.23;;;12.10;99.90;;;;;;5058860;28;20176;-87
2022/12/20 09:44:03;;;;;;;5.83;2.57;;;12.10;99.90;;;;;;5057949;28;20435;-86
2022/12/20 09:46:29;;;;;;;7.57;2.67;;;12.00;99.90;;;;;;5057670;28;20535;-85
2022/12/20 09:48:56;;;;;;;4.77;2.30;;;12.00;99.90;;;;;;5058254;28;20515;-86
2022/12/20 09:51:55;;;;;;;6.33;2.50;;;12.00;99.90;;;;;;5057472;28;20184;-86
2022/12/20 09:54:55;;;;;;;5.73;2.40;;;12.00;99.90;;;;;;5057301;28;20565;-86
2022/12/20 09:57:40;;;;;;;8.70;2.47;;;12.00;99.90;;;;;;5057433;28;20165;-85
2022/12/20 10:00:23;;;;;;;4.87;1.87;;;11.90;99.90;;;;;;5057593;28;20205;-83
2022/12/20 10:02:50;;;;;;;5.87;2.20;;;11.90;99.90;;;;;;5058107;28;20169;-85
2022/12/20 10:05:27;;;;;;;6.87;2.70;;;11.90;99.90;;;;;;5057123;28;20184;-86
2022/12/20 10:08:02;;;;;;;5.07;2.30;;;11.80;99.90;;;;;;5042457;28;20207;-85
2022/12/20 10:10:56;;;;;;;6.10;2.53;;;11.80;99.90;;;;;;5057783;28;20183;-85
2022/12/20 10:13:31;;;;;;;7.70;3.17;;;11.80;99.90;;;;;;5056784;28;20262;-86
2022/12/20 10:16:15;;;;;;;3.97;2.20;;;11.90;99.90;;;;;;5056459;28;20164;-83
2022/12/20 10:19:08;;;;;;;2.97;1.80;;;11.90;99.90;;;;;;5056749;28;20563;-83
2022/12/20 10:21:52;;;;;;;4.40;2.20;;;11.90;99.90;;;;;;5057110;28;20195;-85
2022/12/20 10:24:23;;;;;;;5.13;2.10;;;11.80;99.90;;;;;;5056243;28;20165;-85
2022/12/20 10:26:50;;;;;;;6.03;2.63;;;11.80;99.90;;;;;;5057647;28;20169;-84
2022/12/20 10:29:16;;;;;;;4.87;2.23;;;11.90;99.90;;;;;;5057840;28;20184;-85
2022/12/20 10:31:43;;;;;;;3.50;2.17;;;11.90;99.90;;;;;;5067401;28;20181;-85
2022/12/20 10:34:09;;;;;;;5.87;2.50;;;11.90;99.90;;;;;;5048905;28;20251;-84
2022/12/20 10:36:36;;;;;;;5.57;2.60;;;11.80;99.90;;;;;;5060876;28;20177;-86
2022/12/20 10:39:04;;;;;;;5.13;3.00;;;11.80;99.90;;;;;;5057085;28;20235;-85
2022/12/20 10:41:47;;;;;;;6.63;2.50;;;11.80;99.90;;;;;;5062244;28;20170;-85
2022/12/20 10:44:27;;;;;;;5.60;2.90;;;11.90;99.90;;;;;;5055145;28;20275;-85
2022/12/20 10:46:58;;;;;;;5.37;2.50;;;11.80;99.90;;;;;;5059451;28;20177;-85
2022/12/20 10:49:33;;;;;;;3.67;2.23;;;11.70;99.90;;;;;;5063942;28;20223;-86
2022/12/20 10:52:02;;;;;;;4.33;2.60;;;11.80;99.90;;;;;;5056830;28;20175;-85
2022/12/20 10:54:41;;;;;;;4.77;2.70;;;11.70;99.90;;;;;;5055192;28;20197;-84
2022/12/20 10:57:23;;;;;;;10.07;3.60;;;11.60;99.90;;;;;;5055079;28;20173;-86
2022/12/20 11:00:01;;;;;;;7.70;3.23;;;11.70;99.90;;;;;;5054970;28;20165;-85
2022/12/20 11:02:36;;;;;;;6.33;3.13;;;11.60;99.90;;;;;;5054709;28;20645;-85
2022/12/20 11:05:19;;;;;;;4.47;2.63;;;11.70;99.90;;;;;;5058841;28;20176;-85
2022/12/20 11:08:05;;;;;;;4.70;2.77;;;11.80;99.90;;;;;;5066264;28;20679;-84
2022/12/20 11:10:31;;;;;;;5.07;3.10;;;11.70;99.90;;;;;;5056393;28;20204;-85
2022/12/20 11:13:05;;;;;;;5.80;2.77;;;11.70;99.90;;;;;;5060034;28;20217;-85
2022/12/20 11:15:35;;;;;;;5.13;2.83;;;11.70;99.90;;;;;;5070247;28;20169;-85
2022/12/20 11:18:14;;;;;;;6.33;2.77;;;11.70;99.90;;;;;;5055951;28;20543;-86
2022/12/20 11:20:54;;;;;;;6.90;2.97;;;11.60;99.90;;;;;;5056097;28;20164;-83
2022/12/20 11:23:38;;;;;;;6.40;3.20;;;11.60;99.90;;;;;;5054586;28;20192;-85
2022/12/20 11:26:21;;;;;;;3.77;2.90;;;11.60;99.90;;;;;;5055007;28;20181;-85
2022/12/20 11:29:10;;;;;;;6.93;3.07;;;11.70;99.90;;;;;;5061712;28;20172;-85
2022/12/20 11:32:15;;;;;;;5.97;2.73;;;11.60;99.90;;;;;;5047479;28;20216;-84
2022/12/20 11:35:13;;;;;;;5.60;2.90;;;11.60;99.90;;;;;;5057146;28;20228;-86
2022/12/20 11:38:21;;;;;;;6.27;2.93;;;11.50;99.90;;;;;;5053874;28;20254;-86
2022/12/20 11:41:01;;;;;;;7.90;3.00;;;11.50;99.90;;;;;;5054396;28;20279;-86
2022/12/20 11:43:50;;;;;;;10.13;3.30;;;11.50;99.90;;;;;;5054152;28;20184;-86
2022/12/20 11:46:39;;;;;;;6.43;2.90;;;11.50;99.90;;;;;;5063833;28;20165;-83
2022/12/20 11:49:23;;;;;;;5.73;3.30;;;11.50;99.90;;;;;;5068058;28;20177;-85
2022/12/20 11:52:08;;;;;;;5.23;2.50;;;11.50;99.90;;;;;;5056780;28;20169;-86
2022/12/20 11:54:48;;;;;;;6.13;2.73;;;11.50;99.90;;;;;;5053585;28;20231;-85
2022/12/20 11:57:25;;;;;;;6.90;2.90;;;11.70;99.90;;;;;;5053393;28;20550;-86
2022/12/20 11:59:56;;;;;;;3.60;2.40;;;11.50;99.90;;;;;;5053447;28;20190;-84
2022/12/20 12:02:40;;;;;;;5.77;3.43;;;11.50;99.90;;;;;;5053092;28;20205;-85
2022/12/20 12:05:25;;;;;;;6.90;3.30;;;11.60;99.90;;;;;;5073110;28;20260;-86
2022/12/20 12:08:04;;;;;;;5.17;2.50;;;11.60;99.90;;;;;;5064922;28;20302;-83
2022/12/20 12:10:44;;;;;;;5.90;3.03;;;11.50;99.90;;;;;;5059034;28;20643;-85
2022/12/20 12:13:34;;;;;;;5.53;2.80;;;11.50;99.90;;;;;;5058027;28;20203;-84
2022/12/20 12:16:11;;;;;;;6.57;3.00;;;11.50;99.90;;;;;;5058375;28;20168;-86
2022/12/20 12:18:38;;;;;;;6.23;2.93;;;11.60;99.90;;;;;;5060712;28;20164;-86
2022/12/20 12:21:04;;;;;;;7.63;3.47;;;11.50;99.90;;;;;;5056652;28;20195;-85
2022/12/20 12:23:48;;;;;;;5.70;3.60;;;11.50;99.90;;;;;;5056133;28;20180;-86
2022/12/20 12:26:21;;;;;;;6.57;2.97;;;11.50;99.90;;;;;;5060416;28;20508;-83
2022/12/20 12:28:54;;;;;;;6.67;3.17;;;11.50;99.90;;;;;;5054670;28;20196;-84
2022/12/20 12:31:37;;;;;;;8.43;3.20;;;11.40;99.90;;;;;;5041027;28;20177;-86
2022/12/20 12:34:26;;;;;;;7.57;3.00;;;11.40;99.90;;;;;;5055290;28;20200;-85
2022/12/20 12:37:09;;;;;;;7.57;3.13;;;11.40;99.90;;;;;;5024599;28;20220;-86
2022/12/20 12:40:09;;;;;;;5.13;3.20;;;11.40;99.90;;;;;;5053940;28;20204;-86
2022/12/20 12:43:11;;;;;;;6.07;2.97;;;11.40;99.90;;;;;;5053349;28;20168;-86
2022/12/20 12:45:55;;;;;;;9.03;4.70;;;11.30;99.90;;;;;;5055018;28;20173;-86
2022/12/20 12:48:35;;;;;;;8.07;3.47;;;11.40;99.90;;;;;;5058942;28;20169;-84
2022/12/20 12:51:01;;;;;;;8.80;4.30;;;11.40;99.90;;;;;;5067001;28;20192;-84
2022/12/20 12:53:30;;;;;;;8.27;3.53;;;11.40;99.90;;;;;;5067121;28;20676;-84
2022/12/20 12:55:55;;;;;;;6.00;3.40;;;11.50;99.90;;;;;;5064496;28;20173;-85
2022/12/20 12:58:24;;;;;;;5.93;2.77;;;11.40;99.90;;;;;;5056953;28;20183;-85
2022/12/20 13:00:59;;;;;;;7.13;3.50;;;11.40;99.90;;;;;;5057777;28;20177;-84
2022/12/20 13:03:42;;;;;;;6.17;3.23;;;11.40;99.90;;;;;;5059151;28;20172;-86
2022/12/20 13:06:27;;;;;;;8.23;3.80;;;11.40;99.90;;;;;;5057563;28;20260;-83
2022/12/20 13:08:58;;;;;;;6.03;3.33;;;11.40;99.90;;;;;;5058225;28;20246;-86
2022/12/20 13:11:39;;;;;;;6.33;2.83;;;11.50;99.90;;;;;;5057660;28;20165;-85
2022/12/20 13:14:19;;;;;;;5.97;3.33;;;11.40;99.90;;;;;;5057055;28;20208;-85
2022/12/20 13:17:12;;;;;;;5.60;3.70;;;11.50;99.90;;;;;;5057310;28;20176;-85